Beijing, China
Current Conditions -  °F | °C
As of 4:30 PM on Monday 20 Oct 2014 (Local Time) from ZBAA Reporting Station
Haze Haze  
Wind Chill: 63°   Ceiling: Unl
Heat Index: 63°   Visibility: 1mi
Dew Point: 55°   Wind: 2mph
Humidity: 77%   Direction: NA
Pressure: 30.06"   Gusts: NA
Location:  39.93°N, 116.4°E
Report Text: ZBAA 200830Z VRB01MPS 1700 BR NSC 17/13 Q1018 NOSIG
Loading
Personal Weather Stations






























Interactive Weather Map
Tropical Storm Tracking
New forecast layout! Learn more

10-Day Weather Forecast

Advertisements
Track Severe Weather on mobile